x

Nantucket Sound (44020) Wave Buoy

11:50am - Fri 24th Nov 2017 All times are EST. -5 hours from GMT.

  • Sig Wave height 0.7ft
  • Average Period 4s
  • Wind
    7mph, 9mph gusts
  • Sea Temp 49°f
  • Air Temp 45°f
  • Sea Pressure 1016.5mb
  • Nantucket Sound
  • Nantucket Sound

More Historic Weather Station data

Upgrade to MSW Pro to gain access to the past 30 days of data for over 8000 Wavebouys and Weather Stations around the globe.

Join

Comparision Forecast

View Surf forecast
   
Fri 11/24 11:50am 0.7ft  -  4s 7 9 mph 1016.5mb 49f 45f
10:50am 1ft 9s 3s 9 13 mph 1017mb 48f 44f
9:50am 1ft 10s 3s 9 11 mph 1017.1mb 48f 44f
8:50am 1ft 11s 3s 9 11 mph 1017.2mb 48f 43f
7:50am 1.3ft 10s 3s 11 13 mph 1017.2mb 48f 43f
6:50am 1ft 3s 3s 11 13 mph 1016.8mb 48f 42f
5:50am 1.3ft 3s 3s 11 13 mph 1016.3mb 48f 41f
4:50am 1.3ft 3s 4s 13 18 mph 1016mb 49f 41f
3:50am 1.3ft 3s 4s 13 16 mph 1015.7mb 49f 41f
2:50am 1.6ft 3s 3s 18 20 mph 1015.5mb 49f 42f
1:50am 1.3ft 3s 3s 16 20 mph 1015.8mb 49f 41f
12:50am 1ft 2s 3s 13 16 mph 1015.5mb 49f 42f
Thu 11/23 11:50pm 1ft 3s 3s 11 13 mph 1015.7mb 49f 42f
10:50pm 1ft 2s 3s 13 18 mph 1015.7mb 49f 41f
9:50pm 1ft 5s 3s 11 13 mph 1015.3mb 48f 42f
8:50pm 1ft 10s 3s 11 16 mph 1015.1mb 48f 42f
7:50pm 1ft 6s 4s 11 13 mph 1015.4mb 48f 42f
6:50pm 1ft 11s 4s 9 11 mph 1015.1mb 48f 40f
5:50pm 1.3ft 11s 4s 9 11 mph 1015.3mb 48f 40f
4:50pm 1.3ft 11s 4s 9 11 mph 1015.4mb 49f 40f
3:50pm 1.3ft 11s 5s 7 11 mph 1015.4mb 49f 40f
2:50pm 1.6ft 11s 5s 9 11 mph 1015.5mb 49f 40f
1:50pm 1.3ft 11s 5s 9 11 mph 1015.7mb 49f 38f
12:50pm 1.3ft 10s 4s 7 11 mph 1016.1mb 49f 37f
11:50am 1.3ft 12s 4s 4 9 mph 1016.6mb 49f 36f
10:50am 1.3ft 3s 3s 7 9 mph 1017mb 49f 36f
9:50am 1.6ft 3s 3s 11 13 mph 1017mb 48f 36f
8:50am 2ft 3s 3s 16 22 mph 1016.5mb 48f 36f
7:50am 2.5ft 4s 4s 18 22 mph 1016.8mb 48f 36f
6:50am 2.5ft 4s 4s 18 25 mph 1016.4mb 48f 36f
5:50am 2.5ft 4s 4s 18 22 mph 1015.9mb 48f 37f
4:50am 2.5ft 4s 4s 20 25 mph 1015.2mb 49f 38f
3:50am 2.5ft 4s 4s 20 25 mph 1014.8mb 49f 38f
2:50am 2.5ft 4s 4s 20 25 mph 1014.1mb 49f 40f
1:50am 3ft 4s 3s 20 25 mph 1013.8mb 49f 40f
12:50am 2.5ft 4s 3s 25 29 mph 1013mb 49f 41f
Wed 11/22 11:50pm 3.5ft 4s 4s 22 27 mph 1012.7mb 49f 41f
10:50pm 3.5ft 4s 4s 29 36 mph 1011.2mb 49f 42f
9:50pm 4.5ft 4s 4s 34 38 mph 1010.3mb 49f 42f
8:50pm 4.5ft 4s 4s 29 38 mph 1009.8mb 49f 43f
7:50pm 4ft 4s 4s 27 34 mph 1008.4mb 49f 45f
6:50pm 4.5ft 5s 4s 29 36 mph 1007.7mb 49f 46f
5:50pm 2ft 3s 3s 29 36 mph 1006.1mb 49f 47f
4:50pm 1ft 5s 4s 7 7 mph 1006.4mb 50f 50f
3:50pm 1ft 4s 3s 9 11 mph 1006.1mb 50f 50f
2:50pm 1.3ft 4s 4s 11 13 mph 1006.8mb 50f 50f
1:50pm 1.3ft 3s 4s 9 13 mph 1008mb 50f 51f
12:50pm 1.6ft 3s 4s 7 9 mph 1009.5mb 50f 51f
11:50am 1.6ft 3s 3s 13 18 mph 1011.1mb 50f 52f
10:50am 1.6ft 3s 3s 11 16 mph 1011.8mb 50f 54f
9:50am 2ft 4s 3s 13 13 mph 1012.7mb 50f 54f
8:50am 2.5ft 3s 3s 20 25 mph 1013.2mb 50f 56f
7:50am 2ft 3s 3s 22 25 mph 1013.7mb 50f 56f
6:50am 2ft 3s 3s 20 22 mph 1014.2mb 50f 55f
5:50am 1.6ft 3s 3s 20 22 mph 1015.1mb 50f 55f
4:50am 1.6ft 3s 3s 18 22 mph 1016mb 50f 54f
3:50am 1.6ft 3s 3s 16 20 mph 1016.6mb 50f 54f
2:50am 1.6ft 3s 3s 16 18 mph 1016.9mb 50f 54f
1:50am 1.6ft 3s 3s 13 16 mph 1017.7mb 50f 54f
12:50am 1.6ft 3s 3s 16 20 mph 1017.7mb 50f 55f
Tue 11/21 11:50pm 2ft 4s 3s 16 18 mph 1018mb 50f 54f
10:50pm 2.5ft 3s 3s 20 25 mph 1018mb 50f 55f
9:50pm 2.5ft 3s 3s 20 22 mph 1018mb 50f 55f
8:50pm 2.5ft 3s 3s 22 27 mph 1017.7mb 50f 55f
7:50pm 2.5ft 3s 3s 22 27 mph 1017.9mb 49f 54f
6:50pm 2.5ft 3s 3s 22 25 mph 1018.2mb 49f 54f
5:50pm 2.5ft 4s 3s 22 27 mph 1018.2mb 49f 53f
4:50pm 2.5ft 4s 4s 20 22 mph 1018.5mb 49f 54f
3:50pm 2.5ft 4s 4s 20 22 mph 1018.8mb 50f 54f
2:50pm 3ft 5s 4s 22 27 mph 1018.6mb 50f 54f
1:50pm 2.5ft 4s 4s 22 27 mph 1018.8mb 50f 54f
12:50pm 2.5ft 4s 4s 20 25 mph 1019.7mb 50f 54f
11:50am 2.5ft 4s 3s 22 27 mph 1020.2mb 50f 54f
10:50am 2ft 4s 3s 22 25 mph 1021mb 49f 53f
9:50am 1.6ft 4s 3s 20 22 mph 1021.8mb 49f 53f
8:50am 2ft 3s 3s 18 22 mph 1021.6mb 49f 52f
7:50am 2ft 4s 3s 18 20 mph 1021.3mb 49f 51f
6:50am 1.6ft 3s 3s 13 18 mph 1021mb 49f 50f
5:50am 1.6ft 4s 3s 16 18 mph 1020.6mb 49f 49f
4:50am 1.3ft 4s 3s 20 27 mph 1020.2mb 49f 49f
3:50am 1.6ft 4s 4s 13 18 mph 1020.5mb 49f 48f
2:50am 1.6ft 4s 4s 18 20 mph 1020.4mb 49f 48f
1:50am 2.5ft 4s 4s 18 20 mph 1020.3mb 50f 47f
12:50am 3ft 4s 4s 22 27 mph 1019.6mb 50f 47f
Mon 11/20 11:50pm 3.5ft 4s 4s 25 29 mph 1019.2mb 50f 47f
10:50pm 3ft 4s 3s 27 34 mph 1018.7mb 50f 47f
9:50pm 3ft 4s 3s 22 29 mph 1018.3mb 49f 46f
8:50pm 4ft 4s 4s 29 34 mph 1017.6mb 49f 45f
7:50pm 4ft 4s 4s 29 36 mph 1017mb 49f 45f
6:50pm 2.5ft 4s 3s 29 34 mph 1016.3mb 49f 45f